Aviation Digital Data Service (ADDS)

Output produced by METARs form (0144 UTC 15 August 2020)
found at http://www.aviationweather.gov/metar/data/
 
LECO 150130Z AUTO 19005KT 9999 SCT033 BKN041 15/14 Q1016
TAF LECO 142000Z 1421/1521 VRB05KT 9999 SCT025 SCT040 TX22/1513Z TN13/1504Z 
     TEMPO 1503/1521 -RA SHRA SCT030TCU 
     PROB40 
     TEMPO 1503/1521 3000 RA SHRA SCT030TCU 
     PROB30 
     TEMPO 1503/1507 1500 BCFG 
     TEMPO 1512/1519 25012KT
       
LEAB 150000Z 16007KT 130V190 CAVOK 20/13 Q1017 NOSIG
TAF LEAB 142300Z 1500/1524 VRB05KT CAVOK TX33/1516Z TN16/1506Z 
     PROB40 
     TEMPO 1500/1504 16010KT 
     BECMG 1508/1510 27010KT
       
TAF LERI 141400Z 1415/1515 12010KT CAVOK TX36/1515Z TN20/1505Z 
     BECMG 1420/1422 VRB03KT 
     BECMG 1513/1515 18010KT
       
LEAL 150130Z 28003KT 9999 FEW016 SCT021 24/22 Q1013 NOSIG
TAF LEAL 142300Z 1500/1524 VRB03KT 9999 FEW015 SCT020 TX31/1513Z TN21/1506Z 
     BECMG 1510/1512 18010KT 
     BECMG 1519/1521 VRB03KT
       
LEAM 150130Z AUTO 35004KT CAVOK 23/19 Q1013
TAF LEAM 142000Z 1421/1521 VRB02KT CAVOK TX30/1513Z TN22/1505Z 
     BECMG 1510/1512 20010KT
       
LEAS 150130Z AUTO VRB02KT 9999 BKN050 OVC070 18/16 Q1015
TAF LEAS 142000Z 1421/1521 VRB05KT 9999 SCT020 BKN040 TX21/1515Z TN16/1503Z 
     PROB40 
     TEMPO 1503/1509 3000 -RA -SHRA BR BKN010 SCT035TCU 
     TEMPO 1503/1518 3000 RA SHRA BKN035TCU 
     PROB30 
     TEMPO 1512/1518 33012G22KT TS SHRA BKN010 SCT030CB 
     TEMPO 1510/1519 32013KT
       
LEMD 150130Z VRB02KT CAVOK 20/10 Q1014 NOSIG
TAF LEMD 142300Z 1500/1606 VRB05KT CAVOK TX31/1516Z TN16/1506Z 
     BECMG 1509/1511 23010KT 
     PROB30 
     TEMPO 1511/1520 23015G25KT 
     BECMG 1520/1522 VRB05KT
       
LEBL 150130Z 33003KT 310V010 9999 FEW018 24/21 Q1014 NOSIG
TAF LEBL 142300Z 1500/1524 34005KT 9999 FEW020 TX30/1512Z TN22/1506Z 
     TEMPO 1504/1509 34010G20KT 
     BECMG 1509/1511 20010KT 
     BECMG 1519/1521 VRB03KT
       
LEBB 150130Z AUTO VRB02KT 4900 2300NW BR FEW016 BKN021 OVC026 20/18 Q1015
TAF LEBB 142300Z 1500/1524 VRB05KT 9999 BKN030 TX26/1512Z TN19/1505Z 
     TEMPO 1510/1519 33010KT FEW030TCU 
     PROB40 
     TEMPO 1500/1506 3000 RA SHRA BKN010 SCT030TCU 
     PROB30 
     TEMPO 1506/1521 3000 RA SHRA BKN010 SCT030TCU
       
LEBG 150130Z AUTO 05006KT 020V080 9999 OVC005 16/15 Q1016
LEBA 150130Z AUTO 25004KT CAVOK 20/14 Q1014
TAF LEBA 141400Z 1415/1515 27010KT CAVOK TX34/1515Z TN17/1506Z 
     BECMG 1500/1502 VRB03KT
       
LEVS 150130Z AUTO 24004KT 8000 NCD 19/07 Q1015
TAF LEVS 142300Z 1500/1524 VRB05KT CAVOK TX31/1516Z TN16/1506Z 
     BECMG 1509/1511 23010KT 
     PROB30 
     TEMPO 1511/1520 23015G25KT 
     BECMG 1520/1522 VRB05KT
       
GCFV 150130Z AUTO 03018KT 9999 SCT024 23/19 Q1017
TAF GCFV 142000Z 1421/1521 35010KT 9999 FEW025 TX27/1514Z TN22/1506Z 
     BECMG 1506/1508 05015KT 
     PROB30 
     TEMPO 1511/1518 04015G25KT
       
TAF LEGT 142300Z 1500/1524 VRB05KT CAVOK TX31/1516Z TN17/1506Z 
     BECMG 1509/1511 23010KT 
     PROB30 
     TEMPO 1511/1520 23015G25KT 
     BECMG 1520/1522 VRB05KT
       
LEGE 150130Z VRB01KT 9999 FEW040 18/17 Q1014
TAF LEGE 142300Z 1500/1524 VRB05KT 9999 FEW020 TX35/1513Z TN20/1506Z 
     BECMG 1511/1514 18012KT 
     TEMPO 1511/1517 18015G25KT 
     BECMG 1520/1522 VRB03KT
       
GCLP 150130Z 02023KT 9999 FEW020 BKN027 23/17 Q1018 NOSIG
TAF GCLP 142000Z 1421/1521 02025KT 9999 SCT025 TX27/1514Z TN21/1506Z 
     PROB30 
     TEMPO 1421/1423 36020G30KT 
     PROB30 
     TEMPO 1510/1520 02025G35KT
       
LEGR 150130Z AUTO 00000KT CAVOK 21/10 Q1017
TAF LEGR 142000Z 1421/1521 VRB02KT CAVOK TX35/1515Z TN16/1506Z 
     BECMG 1512/1514 27010KT
       
GCHI 150130Z AUTO 36017KT 330V030 9999 BKN020 23/19 Q1018
TAF GCHI 142000Z 1421/1521 02017KT 9999 FEW015 TX26/1514Z TN22/1506Z 
     PROB30 
     TEMPO 1421/1521 02015G25KT
       
LEIB 150130Z 33003KT 9999 SCT015 24/23 Q1013 NOSIG
TAF LEIB 142000Z 1421/1521 VRB03KT 9999 FEW020 TX30/1515Z TN22/1505Z 
     PROB30 
     TEMPO 1502/1506 3000 BR BKN010 
     BECMG 1506/1508 20010KT
       
LEJR 150130Z AUTO 19004KT CAVOK 19/17 Q1015
TAF LEJR 142300Z 1500/1524 VRB02KT CAVOK TX29/1514Z TN16/1506Z 
     BECMG 1510/1512 26010KT 
     BECMG 1520/1522 VRB02KT
       
GCGM 150130Z AUTO 00000KT CAVOK 21/17 Q1018 RMK R09/00000KT ARP/00000KT
TAF GCGM 142000Z 1421/1521 22009KT 9999 FEW025 TX26/1514Z TN22/1506Z
       
GCLA 150130Z AUTO 33010KT 290V350 9999 FEW034 23/16 Q1019
TAF AMD GCLA 142310Z 1423/1521 32009KT 9999 SCT030 TX27/1514Z TN21/1506Z 
     TEMPO 1423/1509 02012KT 
     BECMG 1509/1511 02012KT
       
GCRR 150130Z AUTO 02011KT CAVOK 22/18 Q1017
TAF GCRR 142000Z 1421/1521 02016KT 9999 FEW025 TX29/1514Z TN21/1506Z 
     PROB30 
     TEMPO 1511/1520 02017G30KT
       
LELN 150130Z AUTO 35003KT 310V020 CAVOK 13/11 Q1016
TAF LELN 142000Z 1421/1521 VRB05KT CAVOK TX24/1515Z TN10/1505Z 
     PROB30 
     TEMPO 1421/1422 34010KT 
     PROB30 
     TEMPO 1502/1507 BKN014 
     TEMPO 1511/1519 27010KT
       
LEMG 150130Z 00000KT CAVOK 24/22 Q1013 NOSIG
TAF LEMG 142300Z 1500/1524 VRB02KT CAVOK TX34/1513Z TN24/1505Z 
     BECMG 1502/1504 29008KT 
     PROB30 
     TEMPO 1510/1518 20006KT
       
GEML 150130Z AUTO 27008KT 240V300 CAVOK 26/14 Q1014
TAF GEML 142000Z 1421/1521 28006KT CAVOK TX31/1513Z TN23/1506Z
       
LEMH 150130Z AUTO 04004KT CAVOK 23/21 Q1014
TAF LEMH 142000Z 1421/1521 VRB04KT 9999 FEW020 TX31/1515Z TN21/1505Z 
     PROB30 
     TEMPO 1423/1506 3000 BR 
     BECMG 1508/1510 18010KT
       
LEMO 150130Z 19009KT 160V230 CAVOK 21/13 Q1015 NOSIG
TAF LEMO 142000Z 1421/1521 21009KT CAVOK TX31/1515Z TN18/1505Z
       
LEPP 150130Z AUTO 31003KT CAVOK 18/17 Q1015
TAF LEPP 142000Z 1421/1521 VRB05KT 9999 FEW040 TX33/1515Z TN18/1505Z 
     TEMPO 1421/1424 3000 TS SHRA FEW035CB SCT040TCU 
     PROB40 
     TEMPO 1508/1514 18010KT 
     BECMG 1512/1514 35012KT 
     TEMPO 1515/1521 35015G28KT 
     PROB30 
     TEMPO 1515/1521 3000 SHRA SCT030TCU
       
LERS 150130Z AUTO 36005KT 9999 BKN022 BKN028 OVC034 24/22 Q1014
TAF LERS 142000Z 1421/1521 VRB03KT 9999 FEW020 TX31/1513Z TN20/1506Z 
     BECMG 1508/1510 18010KT
       
LERT 150130Z 30003KT CAVOK 20/17 Q1015 NOSIG
TAF LERT 142000Z 1421/1521 32008KT CAVOK TX28/1514Z TN20/1506Z 
     BECMG 1510/1512 26010KT
       
LESA 150130Z AUTO 26004KT 220V290 CAVOK 13/09 Q1017
TAF LESA 142000Z 1421/1521 26010KT CAVOK TX27/1515Z TN09/1506Z 
     TEMPO 1421/1510 VRB05KT
       
LESO 150130Z AUTO 24003KT 210V280 9999 SCT019 BKN026 21/18 Q1014
TAF LESO 142300Z 1500/1524 VRB05KT 9999 SCT025 SCT035 TX27/1513Z TN18/1505Z 
     PROB40 
     TEMPO 1509/1521 32010KT 3000 SHRA SCT025TCU
       
LEXJ 150130Z AUTO 00000KT 8000 BKN025 OVC040 20/18 Q1015
TAF LEXJ 142000Z 1421/1521 VRB05KT 9999 FEW020 BKN030 TX24/1513Z TN16/1504Z 
     TEMPO 1511/1519 29012KT 
     PROB30 
     TEMPO 1503/1521 34015G25KT 3000 RA SHRA BKN010 SCT030TCU
       
LEST 150130Z VRB02KT 3000 BR BKN002 14/13 Q1017 NOSIG
TAF LEST 142300Z 1500/1524 VRB05KT 9999 SCT020 BKN035 TX20/1514Z TN13/1503Z 
     TEMPO 1500/1512 BKN010 
     TEMPO 1500/1509 3000 -DZ BR BKN005 
     PROB40 
     TEMPO 1500/1508 1500 -RA BCFG 
     PROB40 
     TEMPO 1502/1507 0350 -SHRA FG BKN001 SCT020TCU 
     TEMPO 1509/1524 3000 RA SHRA BKN010 SCT025TCU 
     TEMPO 1510/1520 25010KT
       
TAF LESU 141400Z 1415/1515 20010KT 9999 FEW020 TX31/1515Z TN12/1505Z 
     PROB40 
     TEMPO 1415/1418 4000 SHRA FEW040CB 
     PROB30 
     TEMPO 1415/1418 3000 TSRA FEW040CB 
     BECMG 1417/1419 VRB03KT
       
LEZL 150130Z AUTO 16002KT CAVOK 21/15 Q1014
TAF LEZL 142000Z 1421/1521 27004KT CAVOK TX33/1515Z TN18/1506Z
       
LESB 150130Z AUTO 01005KT CAVOK 24/22 Q1014
TAF LEBZ 142300Z 1500/1524 28008KT CAVOK TX33/1515Z TN14/1506Z
       
GCXO 150130Z AUTO 31011KT 280V340 9999 BKN007 OVC012 18/16 Q1021
TAF GCXO 142000Z 1421/1521 32015KT 9999 BKN012 TX24/1514Z TN17/1506Z 
     PROB40 
     TEMPO 1421/1509 2500 BCFG BKN004 
     BECMG 1501/1503 30005KT 
     BECMG 1510/1512 33015KT 
     BECMG 1511/1513 SCT015
       
GCTS 150130Z 05017KT CAVOK 23/18 Q1017 NOSIG
TAF GCTS 142000Z 1421/1521 08022KT 9999 FEW025 TX28/1514Z TN21/1506Z 
     PROB40 
     TEMPO 1421/1501 09022G32KT 
     TEMPO 1501/1510 04010KT 
     PROB40 
     TEMPO 1512/1520 08022G35KT
       
LETO 150130Z 02007KT CAVOK 18/11 Q1014 NOSIG
TAF LETO 142300Z 1500/1524 VRB05KT CAVOK TX30/1516Z TN14/1506Z 
     BECMG 1509/1511 23010KT 
     PROB30 
     TEMPO 1511/1520 23015G25KT 
     BECMG 1520/1522 VRB05KT
       
LEVC 150130Z 33006KT 9999 SCT020 25/21 Q1013 NOSIG
TAF LEVC 142300Z 1500/1524 VRB03KT 9999 FEW015 SCT020 TX32/1513Z TN21/1506Z 
     BECMG 1511/1513 12010KT 
     BECMG 1518/1520 04005KT
       
LEVD 150130Z AUTO VRB02KT CAVOK 14/09 Q1015
TAF LEVD 142000Z 1421/1521 VRB05KT CAVOK TX27/1516Z TN11/1505Z 
     BECMG 1508/1510 25010KT
       
LEVX 150100Z VRB02KT 9999 SCT007 15/14 Q1017 NOSIG
TAF LEVX 142300Z 1500/1524 VRB05KT 9999 SCT020 SCT040 TX21/1514Z TN14/1505Z 
     TEMPO 1500/1510 3000 BR 
     PROB40 
     TEMPO 1500/1509 1500 BCFG BKN005 
     PROB40 
     TEMPO 1500/1508 0350 -SHRA FG BKN001 SCT020TCU 
     PROB30 
     TEMPO 1509/1524 SHRA BKN010 SCT020TCU 
     TEMPO 1510/1520 28010KT
       
LEVT 150130Z 34004KT 9999 OVC011 18/16 Q1016
TAF LEVT 142300Z 1500/1524 01009KT 9999 FEW015 SCT030 TX30/1514Z TN16/1504Z 
     TEMPO 1500/1508 BKN010 
     PROB40 
     TEMPO 1503/1506 3000 BR BCFG BKN005 SCT030TCU 
     PROB40 
     TEMPO 1512/1518 VRB15G25KT 3000 RA SHRA SCT030TCU 
     PROB30 
     TEMPO 1512/1518 VRB15G25KT 3000 TS SHRA SCT030CB
       
LEZG 150130Z 10006KT 070V130 CAVOK 24/20 Q1013
TAF LEZG 142300Z 1500/1524 11010KT 9999 FEW040 TX35/1515Z TN20/1506Z 
     TEMPO 1512/1518 FEW040CB 
     TEMPO 1517/1520 25012KT 
     BECMG 1520/1522 32015KT 
     TEMPO 1520/1524 32020G30KT